Time;durP1;ratioP1;P1;durP2;ratioP2;P2;SDS_P1;SDS_P2;PMS_P1;PMS_P2;Temp;Humidity;BMP_temperature;BMP_pressure;BME280_temperature;BME280_humidity;BME280_pressure;Samples;Min_cycle;Max_cycle;Signal;HPM_P1;HPM_P2
2023/11/04 00:01:16;;;;;;;7.10;3.30;;;;;;;4.83;88.39;94050.34;106863;1273;22765;-78
2023/11/04 00:03:52;;;;;;;10.30;5.00;;;;;;;4.72;87.99;94053.54;106784;1273;25341;-78
2023/11/04 00:06:22;;;;;;;4.30;2.60;;;;;;;4.72;88.54;94045.69;106932;1273;22514;-78
2023/11/04 00:08:51;;;;;;;2.00;0.80;;;;;;;4.69;88.28;94049.60;106975;1273;24238;-78
2023/11/04 00:11:20;;;;;;;1.60;1.00;;;;;;;4.74;88.83;94060.10;106777;1273;22527;-78
2023/11/04 00:13:48;;;;;;;2.70;1.40;;;;;;;4.79;88.91;94063.66;106911;1273;22534;-78
2023/11/04 00:16:17;;;;;;;2.00;1.00;;;;;;;4.83;88.79;94051.77;106882;1273;22518;-78
2023/11/04 00:18:45;;;;;;;1.60;0.90;;;;;;;4.81;88.47;94050.23;106765;1273;22545;-78
2023/11/04 00:21:13;;;;;;;2.90;1.40;;;;;;;4.80;88.56;94055.64;106902;1273;25414;-78
2023/11/04 00:23:42;;;;;;;8.40;5.00;;;;;;;4.73;87.85;94051.43;106707;1273;24253;-78
2023/11/04 00:26:10;;;;;;;13.70;8.00;;;;;;;4.59;87.22;94058.70;106683;1273;24199;-78
2023/11/04 00:28:39;;;;;;;12.10;4.80;;;;;;;4.52;87.89;94054.81;106926;1273;24242;-78
2023/11/04 00:31:07;;;;;;;5.50;3.40;;;;;;;4.55;88.48;94042.23;106739;1273;22999;-78
2023/11/04 00:33:36;;;;;;;3.20;1.20;;;;;;;4.55;88.12;94048.14;106885;1273;25375;-78
2023/11/04 00:36:05;;;;;;;3.10;0.60;;;;;;;4.49;88.08;94057.67;106870;1273;24247;-78
2023/11/04 00:38:33;;;;;;;1.60;0.50;;;;;;;4.49;88.27;94062.70;106956;1273;22520;-78
2023/11/04 00:41:02;;;;;;;1.40;1.20;;;;;;;4.47;88.59;94063.11;106689;1273;23906;-78
2023/11/04 00:43:33;;;;;;;3.50;0.50;;;;;;;4.51;88.80;94055.00;106702;1273;22515;-78
2023/11/04 00:46:02;;;;;;;1.50;0.70;;;;;;;4.58;88.96;94044.60;106973;1273;25198;-78
2023/11/04 00:48:30;;;;;;;1.90;0.70;;;;;;;4.62;88.77;94036.16;106923;1273;25365;-78
2023/11/04 00:50:58;;;;;;;0.80;0.60;;;;;;;4.66;88.86;94033.65;106922;1273;24201;-78
2023/11/04 00:53:27;;;;;;;1.40;0.70;;;;;;;4.62;87.91;94033.89;106901;1273;22533;-78
2023/11/04 00:55:55;;;;;;;2.30;1.90;;;;;;;4.49;87.44;94040.95;106685;1267;24355;-78
2023/11/04 00:58:23;;;;;;;5.30;1.70;;;;;;;4.39;87.60;94047.25;106908;1273;22602;-78
2023/11/04 01:00:51;;;;;;;3.20;1.20;;;;;;;4.36;88.06;94039.66;106933;1273;25613;-78
2023/11/04 01:03:20;;;;;;;4.00;2.20;;;;;;;4.29;87.90;94040.14;106848;1273;24268;-78
2023/11/04 01:05:48;;;;;;;12.50;5.40;;;;;;;4.09;87.69;94039.29;106902;1273;22539;-78
2023/11/04 01:08:16;;;;;;;7.20;3.30;;;;;;;3.99;87.85;94042.43;106808;1273;25372;-78
2023/11/04 01:10:45;;;;;;;1.30;0.90;;;;;;;3.90;87.87;94040.48;106923;1273;22511;-78
2023/11/04 01:13:13;;;;;;;1.30;0.90;;;;;;;3.88;88.25;94031.51;106973;1273;22521;-78
2023/11/04 01:15:42;;;;;;;0.70;0.60;;;;;;;3.84;88.12;94036.26;107017;1273;24278;-78
2023/11/04 01:18:10;;;;;;;1.30;0.60;;;;;;;3.79;88.34;94049.92;107030;1273;22621;-78
2023/11/04 01:20:38;;;;;;;0.80;0.60;;;;;;;3.77;88.47;94051.33;106736;1273;22530;-78
2023/11/04 01:23:07;;;;;;;4.00;2.00;;;;;;;3.72;88.58;94047.61;106850;1273;22558;-78
2023/11/04 01:25:35;;;;;;;5.80;2.80;;;;;;;3.67;88.95;94048.21;107077;1273;24199;-78
2023/11/04 01:28:04;;;;;;;4.20;2.60;;;;;;;3.61;89.05;94043.44;106697;1273;24338;-78
2023/11/04 01:30:32;;;;;;;4.40;1.90;;;;;;;3.55;88.94;94039.71;106911;1273;22530;-78
2023/11/04 01:33:01;;;;;;;3.40;2.30;;;;;;;3.55;89.00;94037.63;107062;1273;25334;-78
2023/11/04 01:35:30;;;;;;;2.40;1.60;;;;;;;3.62;89.39;94031.08;106970;1273;22521;-78
2023/11/04 01:37:58;;;;;;;1.30;0.90;;;;;;;3.64;89.14;94032.96;106940;1273;22536;-78
2023/11/04 01:40:26;;;;;;;1.40;1.20;;;;;;;3.66;89.26;94029.29;106764;1273;22516;-78
2023/11/04 01:42:54;;;;;;;2.40;0.80;;;;;;;3.69;89.23;94037.73;106918;1273;24089;-78
2023/11/04 01:45:23;;;;;;;1.00;0.90;;;;;;;3.68;89.07;94036.03;106721;1273;22680;-78
2023/11/04 01:47:51;;;;;;;4.20;2.60;;;;;;;3.63;89.35;94039.42;106677;1273;22531;-78
2023/11/04 01:50:20;;;;;;;5.90;2.50;;;;;;;3.63;89.88;94036.61;106898;1273;25236;-78
2023/11/04 01:52:48;;;;;;;3.80;2.00;;;;;;;3.66;89.96;94037.80;106858;1273;24219;-78
2023/11/04 01:55:16;;;;;;;1.80;1.10;;;;;;;3.64;89.35;94044.61;107029;1273;22667;-78
2023/11/04 01:57:45;;;;;;;4.20;1.30;;;;;;;3.71;89.81;94043.11;106896;1273;24247;-78
2023/11/04 02:00:15;;;;;;;1.10;1.00;;;;;;;3.80;90.24;94043.65;106875;1273;24334;-78
2023/11/04 02:02:44;;;;;;;1.80;1.00;;;;;;;3.89;90.38;94038.08;106926;1267;23124;-78
2023/11/04 02:05:12;;;;;;;2.90;0.80;;;;;;;3.87;89.79;94040.73;106739;1273;24921;-78
2023/11/04 02:07:41;;;;;;;0.80;0.70;;;;;;;3.87;89.81;94040.56;106922;1273;24298;-78
2023/11/04 02:10:09;;;;;;;4.20;0.80;;;;;;;3.91;89.98;94033.36;106903;1273;24175;-78
2023/11/04 02:12:38;;;;;;;1.20;0.70;;;;;;;3.93;89.50;94034.02;106919;1273;22605;-78
2023/11/04 02:15:07;;;;;;;0.90;0.80;;;;;;;3.98;89.98;94038.96;106675;1273;24276;-78
2023/11/04 02:17:35;;;;;;;1.50;1.00;;;;;;;3.97;89.54;94023.51;106724;1273;22609;-78
2023/11/04 02:20:04;;;;;;;1.40;0.90;;;;;;;3.99;89.72;94002.08;106660;1273;25338;-78
2023/11/04 02:22:32;;;;;;;1.00;0.80;;;;;;;4.05;90.20;93990.64;106896;1273;22630;-78
2023/11/04 02:25:00;;;;;;;0.70;0.70;;;;;;;4.10;89.81;93994.20;106925;1273;22531;-78
2023/11/04 02:27:29;;;;;;;0.50;0.50;;;;;;;4.15;90.03;93995.50;106936;1273;25347;-78
2023/11/04 02:29:57;;;;;;;1.90;0.80;;;;;;;4.15;89.59;93986.11;106727;1273;22538;-78
2023/11/04 02:32:25;;;;;;;2.30;0.80;;;;;;;4.16;89.49;93984.85;106715;1273;25421;-78
2023/11/04 02:34:53;;;;;;;4.10;1.30;;;;;;;4.16;89.42;93989.73;106726;1273;25293;-78
2023/11/04 02:37:21;;;;;;;3.00;1.10;;;;;;;4.15;89.01;93982.27;106928;1273;25242;-78
2023/11/04 02:39:50;;;;;;;2.00;1.10;;;;;;;4.04;88.31;93974.48;106870;1273;22530;-78
2023/11/04 02:42:18;;;;;;;1.90;0.90;;;;;;;4.06;89.49;93979.66;106867;1273;22517;-78
2023/11/04 02:44:46;;;;;;;1.20;0.90;;;;;;;4.13;89.65;93970.30;106939;1273;22530;-78
2023/11/04 02:47:14;;;;;;;3.90;1.20;;;;;;;4.11;89.00;93969.29;106668;1273;25457;-78
2023/11/04 02:49:43;;;;;;;1.00;0.80;;;;;;;4.13;88.93;93956.72;106683;1273;24416;-78
2023/11/04 02:52:11;;;;;;;1.10;0.90;;;;;;;4.16;89.08;93962.06;106908;1273;24377;-78
2023/11/04 02:54:39;;;;;;;2.60;1.40;;;;;;;4.10;88.76;93970.88;106685;1273;26563;-78
2023/11/04 02:57:07;;;;;;;5.20;3.40;;;;;;;3.93;88.42;93975.73;106664;1273;22524;-78
2023/11/04 02:59:35;;;;;;;4.90;2.10;;;;;;;3.81;88.16;93980.30;106983;1273;24815;-78
2023/11/04 03:02:05;;;;;;;3.40;2.10;;;;;;;3.78;88.65;93985.77;106946;1273;24408;-78
2023/11/04 03:04:34;;;;;;;12.20;7.40;;;;;;;3.76;89.05;93979.17;106972;1273;25405;-78
2023/11/04 03:07:03;;;;;;;6.50;4.80;;;;;;;3.74;88.95;93973.67;106953;1273;24230;-78
2023/11/04 03:09:31;;;;;;;3.50;2.50;;;;;;;3.68;89.04;93969.07;106780;1273;25348;-78
2023/11/04 03:12:00;;;;;;;1.50;1.30;;;;;;;3.64;88.86;93973.33;106887;1273;25277;-78
2023/11/04 03:14:28;;;;;;;3.50;1.30;;;;;;;3.62;89.03;93976.83;106722;1273;25420;-78
2023/11/04 03:16:59;;;;;;;1.80;1.00;;;;;;;3.63;88.98;93975.27;106928;1273;24359;-78
2023/11/04 03:19:27;;;;;;;2.10;1.00;;;;;;;3.62;89.38;93961.52;106916;1273;24381;-78
2023/11/04 03:21:56;;;;;;;2.70;1.00;;;;;;;3.60;89.15;93955.83;106661;1251;24213;-78
2023/11/04 03:24:24;;;;;;;1.10;0.80;;;;;;;3.56;89.32;93950.52;107007;1273;25400;-78
2023/11/04 03:26:53;;;;;;;3.70;1.20;;;;;;;3.52;89.77;93961.03;106758;1273;22525;-78
2023/11/04 03:29:21;;;;;;;6.80;3.80;;;;;;;3.41;89.51;93965.90;106898;1266;22524;-78
2023/11/04 03:31:49;;;;;;;3.00;1.70;;;;;;;3.36;89.41;93965.13;106867;1273;22524;-78
2023/11/04 03:34:18;;;;;;;3.30;1.40;;;;;;;3.37;89.54;93965.45;106936;1273;22772;-78
2023/11/04 03:36:46;;;;;;;1.10;1.00;;;;;;;3.42;89.80;93959.80;106871;1273;25372;-78
2023/11/04 03:39:14;;;;;;;3.30;1.20;;;;;;;3.44;90.06;93946.20;106895;1273;24215;-78
2023/11/04 03:41:42;;;;;;;2.00;1.20;;;;;;;3.50;90.09;93941.92;106725;1273;22654;-78
2023/11/04 03:44:10;;;;;;;1.70;1.20;;;;;;;3.57;90.05;93952.23;106674;1250;24266;-78
2023/11/04 03:46:38;;;;;;;3.30;1.20;;;;;;;3.62;90.12;93954.23;106675;1273;22539;-78
2023/11/04 03:49:07;;;;;;;1.60;1.30;;;;;;;3.66;90.00;93951.55;106920;1273;23129;-78
2023/11/04 03:51:35;;;;;;;1.80;1.10;;;;;;;3.71;89.96;93951.98;106925;1273;25290;-78
2023/11/04 03:54:03;;;;;;;1.30;1.00;;;;;;;3.81;90.57;93965.00;106909;1273;22534;-78
2023/11/04 03:56:31;;;;;;;2.70;1.20;;;;;;;3.88;90.56;93970.08;106728;1273;22514;-78
2023/11/04 03:59:00;;;;;;;4.40;1.40;;;;;;;3.94;90.05;93961.80;106917;1273;22538;-78
2023/11/04 04:01:28;;;;;;;5.50;1.60;;;;;;;3.94;89.77;93955.72;106921;1273;22663;-78
2023/11/04 04:03:56;;;;;;;2.50;1.90;;;;;;;3.95;89.67;93956.05;106698;1273;22517;-78
2023/11/04 04:06:24;;;;;;;1.30;1.10;;;;;;;3.98;89.95;93948.33;106936;1273;25380;-78
2023/11/04 04:08:52;;;;;;;1.50;1.00;;;;;;;4.09;90.26;93943.41;106916;1273;24301;-78
2023/11/04 04:11:22;;;;;;;2.10;1.20;;;;;;;4.24;90.79;93932.31;106925;1273;22521;-78
2023/11/04 04:13:51;;;;;;;1.10;0.90;;;;;;;4.40;90.60;93929.20;106737;1273;25246;-78
2023/11/04 04:16:22;;;;;;;3.50;1.00;;;;;;;4.45;90.11;93933.78;106936;1273;22528;-78
2023/11/04 04:18:51;;;;;;;1.60;1.00;;;;;;;4.50;89.99;93930.35;106930;1273;22521;-78
2023/11/04 04:21:19;;;;;;;0.90;0.90;;;;;;;4.53;89.79;93933.96;106916;1273;25501;-78
2023/11/04 04:23:48;;;;;;;6.60;4.10;;;;;;;4.50;89.65;93940.29;106720;1273;24270;-78
2023/11/04 04:26:20;;;;;;;4.30;2.70;;;;;;;4.53;90.12;93940.56;106674;1273;22593;-78
2023/11/04 04:28:49;;;;;;;5.60;4.30;;;;;;;4.64;90.26;93939.11;106723;1260;22502;-78
2023/11/04 04:31:17;;;;;;;10.80;4.70;;;;;;;4.71;90.08;93934.77;106816;1273;24624;-78
2023/11/04 04:33:45;;;;;;;6.50;3.20;;;;;;;4.79;90.06;93928.33;106823;1273;25357;-78
2023/11/04 04:36:14;;;;;;;22.00;11.70;;;;;;;4.79;89.09;93927.11;106861;1273;22777;-78
2023/11/04 04:38:43;;;;;;;22.50;13.90;;;;;;;4.77;88.84;93916.16;106703;1273;22521;-78
2023/11/04 04:41:11;;;;;;;8.90;5.80;;;;;;;4.73;88.58;93905.14;106898;1273;24089;-78
2023/11/04 04:43:39;;;;;;;3.10;2.00;;;;;;;4.73;88.98;93899.55;106717;1273;24241;-78
2023/11/04 04:46:08;;;;;;;2.80;1.40;;;;;;;4.79;89.26;93898.89;106808;1254;22520;-78
2023/11/04 04:48:36;;;;;;;2.90;1.70;;;;;;;4.87;89.45;93904.45;106929;1273;25449;-78
2023/11/04 04:51:04;;;;;;;1.60;1.40;;;;;;;4.92;89.42;93901.01;106936;1273;23884;-78
2023/11/04 04:53:33;;;;;;;3.40;2.50;;;;;;;4.94;89.69;93894.70;106847;1273;22633;-78
2023/11/04 04:56:02;;;;;;;6.60;4.30;;;;;;;4.92;89.56;93899.27;106899;1273;22692;-78
2023/11/04 04:58:30;;;;;;;9.30;4.70;;;;;;;4.90;89.15;93901.41;106893;1273;22534;-78
2023/11/04 05:00:58;;;;;;;8.30;5.60;;;;;;;4.88;88.94;93902.69;106764;1273;23091;-78
2023/11/04 05:03:26;;;;;;;11.30;8.00;;;;;;;4.81;88.75;93899.70;106917;1273;25359;-78
2023/11/04 05:05:56;;;;;;;18.60;9.90;;;;;;;4.74;88.96;93890.80;106933;1273;25425;-78
2023/11/04 05:08:24;;;;;;;12.70;7.60;;;;;;;4.70;89.60;93883.41;106676;1273;25268;-78
2023/11/04 05:10:52;;;;;;;7.00;5.60;;;;;;;4.68;89.94;93882.25;106661;1273;24230;-78
2023/11/04 05:13:22;;;;;;;5.10;4.00;;;;;;;4.68;90.11;93882.95;106972;1273;22513;-78
2023/11/04 05:15:50;;;;;;;16.90;11.40;;;;;;;4.68;91.29;93889.21;107104;1273;23515;-78
2023/11/04 05:18:19;;;;;;;40.00;19.80;;;;;;;4.65;91.51;93893.82;107171;1273;25110;-78
2023/11/04 05:20:47;;;;;;;29.00;16.20;;;;;;;4.68;91.09;93892.19;107093;1273;24286;-78
2023/11/04 05:23:16;;;;;;;30.50;17.70;;;;;;;4.74;91.27;93895.70;106969;1273;22524;-78
2023/11/04 05:25:45;;;;;;;26.80;14.50;;;;;;;4.77;91.36;93907.64;106933;1273;22528;-78
2023/11/04 05:28:13;;;;;;;20.50;11.50;;;;;;;4.85;91.55;93909.70;106877;1273;25437;-78
2023/11/04 05:30:41;;;;;;;18.40;10.90;;;;;;;4.94;91.56;93913.15;106875;1273;22519;-78
2023/11/04 05:33:09;;;;;;;13.40;8.30;;;;;;;5.00;91.41;93923.80;106964;1273;22650;-78
2023/11/04 05:35:38;;;;;;;11.90;7.70;;;;;;;5.10;91.66;93925.16;106964;1273;25423;-78
2023/11/04 05:38:08;;;;;;;16.30;10.90;;;;;;;5.21;91.77;93923.11;106758;1273;285767;-78
2023/11/04 05:40:37;;;;;;;10.70;6.90;;;;;;;5.32;91.38;93924.77;106823;1273;22863;-78
2023/11/04 05:43:05;;;;;;;11.50;7.40;;;;;;;5.37;91.00;93928.32;106863;1273;22530;-78
2023/11/04 05:45:33;;;;;;;10.20;8.10;;;;;;;5.39;90.85;93932.97;106904;1273;22646;-78
2023/11/04 05:48:01;;;;;;;8.90;5.80;;;;;;;5.39;90.57;93933.48;106935;1273;24508;-78
2023/11/04 05:50:30;;;;;;;9.90;7.60;;;;;;;5.45;91.17;93930.74;106855;1273;22549;-78
2023/11/04 05:52:58;;;;;;;11.80;8.80;;;;;;;5.55;91.31;93929.40;106877;1273;22530;-77
2023/11/04 05:55:26;;;;;;;12.30;9.70;;;;;;;5.61;90.88;93925.94;107074;1273;23897;-78
2023/11/04 05:57:54;;;;;;;17.80;12.90;;;;;;;5.69;91.02;93927.66;106860;1273;22524;-77
2023/11/04 06:00:23;;;;;;;14.20;11.90;;;;;;;5.79;91.09;93922.52;106920;1273;25490;-77
2023/11/04 06:02:51;;;;;;;8.40;6.90;;;;;;;5.93;91.38;93908.02;106724;1273;24291;-77
2023/11/04 06:05:19;;;;;;;6.40;3.90;;;;;;;6.05;91.22;93901.73;106675;1273;22514;-78
2023/11/04 06:07:48;;;;;;;8.80;3.60;;;;;;;6.15;90.91;93905.48;106915;1273;22524;-77
2023/11/04 06:10:16;;;;;;;4.20;2.90;;;;;;;6.27;91.10;93912.13;106999;1273;22516;-77
2023/11/04 06:12:44;;;;;;;8.20;5.30;;;;;;;6.34;90.56;93918.38;107055;1273;22529;-77
2023/11/04 06:15:12;;;;;;;9.20;6.90;;;;;;;6.36;90.07;93912.90;107092;1273;24686;-78
2023/11/04 06:17:40;;;;;;;7.70;5.40;;;;;;;6.39;90.06;93905.48;107135;1273;22545;-77
2023/11/04 06:20:09;;;;;;;7.20;5.30;;;;;;;6.44;90.08;93897.12;106800;1257;24364;-78
2023/11/04 06:22:37;;;;;;;6.10;5.40;;;;;;;6.48;89.94;93898.23;106932;1273;23890;-78
2023/11/04 06:25:06;;;;;;;10.60;7.10;;;;;;;6.50;89.50;93897.10;106904;1273;25408;-78
2023/11/04 06:27:36;;;;;;;9.80;7.60;;;;;;;6.48;88.96;93894.73;106686;1273;22731;-78
2023/11/04 06:30:07;;;;;;;27.80;18.50;;;;;;;6.42;88.91;93904.52;107053;1273;22502;-78
2023/11/04 06:32:35;;;;;;;22.20;14.60;;;;;;;6.41;89.03;93902.98;107028;1273;24225;-78
2023/11/04 06:35:05;;;;;;;16.50;11.80;;;;;;;6.42;89.12;93907.48;106835;1273;24041;-78
2023/11/04 06:37:37;;;;;;;18.30;12.30;;;;;;;6.46;89.45;93908.41;107008;1254;24371;-77
2023/11/04 06:40:09;;;;;;;15.50;11.20;;;;;;;6.50;89.74;93906.04;106726;1273;22540;-78
2023/11/04 06:42:38;;;;;;;15.70;9.20;;;;;;;6.49;89.63;93913.72;106726;1273;24071;-77
2023/11/04 06:45:07;;;;;;;26.60;19.50;;;;;;;6.51;89.98;93922.58;106848;1270;22536;-78
2023/11/04 06:47:36;;;;;;;24.60;18.00;;;;;;;6.53;90.23;93924.98;106762;1273;25475;-77
2023/11/04 06:50:05;;;;;;;34.60;24.10;;;;;;;6.57;90.26;93925.39;106828;1273;25392;-77
2023/11/04 06:52:33;;;;;;;41.90;32.90;;;;;;;6.55;90.30;93918.12;106910;1273;22530;-77
2023/11/04 06:55:02;;;;;;;44.40;32.80;;;;;;;6.54;89.89;93921.83;106851;1273;24217;-77
2023/11/04 06:57:31;;;;;;;17.80;13.20;;;;;;;6.54;90.02;93921.81;106914;1273;26647;-77
2023/11/04 06:59:59;;;;;;;14.70;10.50;;;;;;;6.54;89.98;93927.95;106879;1267;22549;-78
2023/11/04 07:02:28;;;;;;;11.40;9.10;;;;;;;6.53;89.96;93929.70;106866;1253;25334;-78
2023/11/04 07:04:59;;;;;;;11.10;7.10;;;;;;;6.52;90.06;93931.31;106897;1273;22634;-78
2023/11/04 07:07:28;;;;;;;10.30;7.10;;;;;;;6.53;90.08;93928.48;106737;1273;25411;-79
2023/11/04 07:09:57;;;;;;;12.90;8.90;;;;;;;6.56;90.15;93928.58;106645;1273;24215;-79
2023/11/04 07:12:25;;;;;;;12.40;8.50;;;;;;;6.59;90.13;93926.03;106737;1273;22524;-80
2023/11/04 07:14:53;;;;;;;18.70;15.00;;;;;;;6.63;90.25;93911.39;106924;1273;24242;-80
2023/11/04 07:17:21;;;;;;;13.90;9.70;;;;;;;6.70;90.27;93917.99;106937;1270;22550;-79
2023/11/04 07:19:49;;;;;;;16.90;9.70;;;;;;;6.76;91.44;93927.08;106755;1273;22658;-79
2023/11/04 07:22:21;;;;;;;13.20;10.00;;;;;;;6.85;91.46;93922.59;106896;1273;22929;-79
2023/11/04 07:24:49;;;;;;;15.30;10.30;;;;;;;6.93;91.39;93919.21;106912;1273;22534;-79
2023/11/04 07:27:17;;;;;;;11.30;7.70;;;;;;;7.02;92.09;93928.21;106717;1273;25328;-78
2023/11/04 07:29:46;;;;;;;12.50;8.30;;;;;;;7.13;92.15;93927.52;106878;1273;22635;-79
2023/11/04 07:32:14;;;;;;;17.00;10.90;;;;;;;7.26;92.05;93918.52;106734;1273;22521;-78
2023/11/04 07:34:42;;;;;;;16.90;12.10;;;;;;;7.39;92.12;93916.16;106878;1273;22520;-79
2023/11/04 07:37:11;;;;;;;20.90;13.90;;;;;;;7.54;91.99;93905.88;106915;1273;24350;-79
2023/11/04 07:39:40;;;;;;;27.50;16.70;;;;;;;7.72;91.89;93906.67;106969;1273;22538;-78
2023/11/04 07:42:08;;;;;;;24.20;14.50;;;;;;;7.84;91.61;93904.32;106704;1273;24272;-79
2023/11/04 07:44:39;;;;;;;20.30;11.40;;;;;;;7.97;91.37;93898.23;106867;1273;22933;-79
2023/11/04 07:47:07;;;;;;;20.30;9.90;;;;;;;8.14;91.79;93886.06;106834;1273;22524;-79
2023/11/04 07:49:35;;;;;;;17.40;8.50;;;;;;;8.33;91.61;93876.09;106891;1273;26616;-79
2023/11/04 07:52:06;;;;;;;33.40;16.80;;;;;;;8.48;91.59;93870.64;106872;1273;22521;-79
2023/11/04 07:54:34;;;;;;;12.20;6.60;;;;;;;8.61;91.27;93861.05;106874;1273;25385;-79
2023/11/04 07:57:03;;;;;;;16.30;6.90;;;;;;;8.70;90.51;93854.03;106676;1273;24409;-79
2023/11/04 07:59:32;;;;;;;27.10;16.80;;;;;;;8.84;90.76;93851.71;106697;1273;25532;-80
2023/11/04 08:02:00;;;;;;;15.80;8.90;;;;;;;9.09;91.37;93839.47;107114;1266;22802;-79
2023/11/04 08:04:28;;;;;;;15.00;7.70;;;;;;;9.34;90.43;93825.47;106853;1273;26666;-80
2023/11/04 08:06:57;;;;;;;109.30;65.60;;;;;;;9.54;90.21;93821.44;106831;1272;22530;-79
2023/11/04 08:09:25;;;;;;;25.80;16.30;;;;;;;9.84;89.61;93814.69;106873;1273;22567;-79
2023/11/04 08:11:53;;;;;;;25.20;20.50;;;;;;;10.03;88.59;93816.14;106884;1273;22576;-79
2023/11/04 08:14:22;;;;;;;8.50;5.30;;;;;;;10.22;88.47;93822.16;106878;1273;22615;-79
2023/11/04 08:16:50;;;;;;;8.10;4.50;;;;;;;10.45;89.07;93826.40;106870;1273;24886;-79
2023/11/04 08:19:19;;;;;;;5.10;4.20;;;;;;;10.60;87.89;93827.78;106874;1273;24257;-79
2023/11/04 08:21:50;;;;;;;6.60;3.00;;;;;;;10.62;87.17;93833.52;106736;1273;22526;-78
2023/11/04 08:24:18;;;;;;;6.60;3.00;;;;;;;10.67;86.31;93839.30;106885;1256;24227;-78
2023/11/04 08:26:46;;;;;;;9.90;4.20;;;;;;;10.70;86.53;93845.45;106888;1273;25395;-79
2023/11/04 08:29:14;;;;;;;7.90;4.20;;;;;;;10.74;86.30;93849.83;106918;1273;24447;-79
2023/11/04 08:31:43;;;;;;;8.10;3.90;;;;;;;10.74;85.99;93850.91;106891;1273;25364;-78
2023/11/04 08:34:11;;;;;;;9.90;3.60;;;;;;;10.73;85.49;93845.86;106838;1273;24263;-79
2023/11/04 08:36:39;;;;;;;7.30;4.10;;;;;;;10.68;84.90;93838.69;106680;1273;22533;-79
2023/11/04 08:39:09;;;;;;;7.50;4.00;;;;;;;10.67;85.56;93842.79;106954;1273;22641;-79
2023/11/04 08:41:37;;;;;;;10.00;6.60;;;;;;;10.68;85.42;93854.33;106866;1273;22521;-78
2023/11/04 08:44:05;;;;;;;8.50;6.50;;;;;;;10.64;85.16;93865.44;106899;1273;22530;-78
2023/11/04 08:46:34;;;;;;;12.00;7.00;;;;;;;10.56;85.10;93871.94;106869;1273;25347;-79
2023/11/04 08:49:03;;;;;;;13.30;7.50;;;;;;;10.49;85.36;93873.87;106756;1273;24241;-79
2023/11/04 08:51:36;;;;;;;13.20;7.50;;;;;;;10.45;85.48;93874.23;106897;1273;22528;-79
2023/11/04 08:54:05;;;;;;;13.40;8.50;;;;;;;10.43;85.55;93877.65;106925;1273;25365;-78
2023/11/04 08:56:33;;;;;;;16.80;9.50;;;;;;;10.38;85.49;93872.05;106991;1273;24369;-79
2023/11/04 08:59:01;;;;;;;14.30;9.60;;;;;;;10.36;85.56;93873.75;107093;1273;25301;-79
2023/11/04 09:01:29;;;;;;;15.70;9.90;;;;;;;10.35;85.59;93876.07;106931;1272;22527;-79
2023/11/04 09:03:58;;;;;;;15.80;9.80;;;;;;;10.36;85.74;93868.14;106953;1273;24279;-79
2023/11/04 09:06:33;;;;;;;16.00;8.90;;;;;;;10.36;85.83;93867.96;106816;1273;24201;-79
2023/11/04 09:09:03;;;;;;;47.30;37.30;;;;;;;10.35;85.65;93870.08;106859;1273;22520;-80
2023/11/04 09:11:32;;;;;;;20.90;15.70;;;;;;;10.37;86.39;93871.07;106777;1273;25415;-80
2023/11/04 09:14:04;;;;;;;27.90;17.40;;;;;;;10.45;86.57;93861.40;107007;1273;24361;-79
2023/11/04 09:16:32;;;;;;;32.10;17.30;;;;;;;10.55;86.77;93844.23;106829;1273;22629;-80
2023/11/04 09:19:01;;;;;;;27.30;16.80;;;;;;;10.67;86.97;93830.81;106745;1273;22523;-79
2023/11/04 09:21:29;;;;;;;41.30;21.70;;;;;;;10.79;86.60;93829.05;106765;1273;24244;-80
2023/11/04 09:23:57;;;;;;;26.90;17.00;;;;;;;10.88;86.60;93829.48;106867;1273;25493;-79
2023/11/04 09:26:26;;;;;;;18.70;12.90;;;;;;;11.01;86.76;93822.66;106899;1273;22513;-80
2023/11/04 09:28:54;;;;;;;22.10;12.10;;;;;;;11.10;86.01;93820.12;106893;1273;24215;-80
2023/11/04 09:31:22;;;;;;;17.40;11.10;;;;;;;11.18;86.33;93805.65;106932;1259;24498;-79
2023/11/04 09:33:52;;;;;;;24.60;11.30;;;;;;;11.34;86.66;93796.27;106758;1273;22538;-79
2023/11/04 09:36:20;;;;;;;12.70;7.30;;;;;;;11.46;86.21;93791.77;106867;1273;24363;-80
2023/11/04 09:38:49;;;;;;;9.20;5.60;;;;;;;11.59;85.90;93791.64;106694;1273;24260;-79
2023/11/04 09:41:17;;;;;;;9.20;5.40;;;;;;;11.69;85.54;93782.16;106854;1273;25252;-80
2023/11/04 09:43:45;;;;;;;22.10;16.70;;;;;;;11.81;85.29;93777.11;106861;1273;25363;-80
2023/11/04 09:46:14;;;;;;;5.80;5.00;;;;;;;11.91;84.51;93770.12;106896;1273;24470;-80
2023/11/04 09:49:35;;;;;;;12.00;6.70;;;;;;;12.12;84.52;93765.63;103659;1305;545053;-79
2023/11/04 09:52:09;;;;;;;9.70;5.70;;;;;;;12.27;84.36;93764.84;105960;1289;24290;-80
2023/11/04 09:54:38;;;;;;;9.00;5.60;;;;;;;12.36;83.53;93762.93;105956;1284;22544;-80
2023/11/04 09:57:07;;;;;;;15.60;6.00;;;;;;;12.54;83.82;93763.67;106486;1282;23928;-80
2023/11/04 09:59:35;;;;;;;8.10;5.60;;;;;;;12.77;83.22;93758.36;106448;1282;22531;-80
2023/11/04 10:02:04;;;;;;;7.40;5.90;;;;;;;13.04;82.87;93749.58;106389;1282;22546;-80
2023/11/04 10:04:32;;;;;;;9.70;5.90;;;;;;;13.40;83.10;93741.90;106659;1279;22524;-79
2023/11/04 10:07:01;;;;;;;10.60;6.40;;;;;;;13.75;82.32;93730.20;106753;1279;22605;-80
2023/11/04 10:09:30;;;;;;;8.70;6.40;;;;;;;14.04;81.35;93717.86;106723;1279;24267;-80
2023/11/04 10:12:01;;;;;;;8.40;5.00;;;;;;;14.33;80.69;93703.31;106700;1279;22657;-80
2023/11/04 10:14:30;;;;;;;7.40;4.50;;;;;;;14.70;79.69;93696.52;106726;1279;23000;-79
2023/11/04 10:16:58;;;;;;;5.90;3.60;;;;;;;15.11;79.81;93691.23;106702;1279;22650;-80
2023/11/04 10:19:26;;;;;;;6.50;3.90;;;;;;;15.45;78.94;93679.52;106628;1279;22533;-79
2023/11/04 10:21:55;;;;;;;6.50;3.50;;;;;;;15.64;76.91;93684.77;106384;1279;23894;-80
2023/11/04 10:24:24;;;;;;;3.10;2.80;;;;;;;15.84;76.66;93683.60;106637;1276;22527;-79
2023/11/04 10:26:52;;;;;;;5.20;2.70;;;;;;;16.29;74.55;93682.24;106665;1276;22667;-80
2023/11/04 10:29:20;;;;;;;6.60;4.00;;;;;;;16.65;71.84;93680.52;106645;1276;22546;-80
2023/11/04 10:31:52;;;;;;;6.10;4.60;;;;;;;17.13;70.46;93676.45;106619;1276;22536;-80
2023/11/04 10:34:27;;;;;;;4.80;3.10;;;;;;;17.45;67.50;93683.67;106801;1276;25589;-79
2023/11/04 10:36:57;;;;;;;4.80;2.50;;;;;;;17.52;67.44;93677.95;106766;1275;22545;-79
2023/11/04 10:39:46;;;;;;;6.20;3.60;;;;;;;17.42;67.54;93671.77;106603;1275;22624;-79
2023/11/04 10:42:19;;;;;;;7.90;3.10;;;;;;;17.23;63.92;93667.23;106737;1275;24257;-80
2023/11/04 10:44:50;;;;;;;5.10;2.80;;;;;;;16.98;64.08;93664.61;106616;1275;23978;-79
2023/11/04 10:47:44;;;;;;;4.90;3.40;;;;;;;16.76;64.27;93666.96;106731;1275;24281;-79
2023/11/04 10:50:15;;;;;;;3.60;1.60;;;;;;;16.69;61.78;93664.63;106647;1275;23919;-79
2023/11/04 10:53:06;;;;;;;1.30;1.10;;;;;;;16.61;60.29;93661.98;106717;1275;22525;-79
2023/11/04 10:56:27;;;;;;;5.10;1.50;;;;;;;16.21;55.74;93658.86;106746;1255;25643;-80
2023/11/04 10:59:14;;;;;;;2.90;1.10;;;;;;;16.07;57.98;93650.61;106571;1275;24234;-78
2023/11/04 11:01:44;;;;;;;2.20;1.30;;;;;;;15.97;57.97;93647.77;106645;1275;22527;-79
2023/11/04 11:04:13;;;;;;;3.90;1.30;;;;;;;15.83;56.97;93648.77;106899;1275;22646;-78
2023/11/04 11:06:42;;;;;;;4.40;1.40;;;;;;;15.71;57.00;93643.91;106654;1275;22678;-78
2023/11/04 11:09:11;;;;;;;1.90;1.20;;;;;;;15.58;58.02;93643.58;106599;1275;24199;-79
2023/11/04 11:11:50;;;;;;;7.10;4.90;;;;;;;15.52;59.26;93635.60;106627;1275;24238;-79
2023/11/04 11:14:19;;;;;;;4.30;2.60;;;;;;;15.58;61.20;93633.45;106905;1275;22540;-79
2023/11/04 11:16:58;;;;;;;5.40;2.50;;;;;;;15.56;60.08;93634.68;106734;1275;22645;-79
2023/11/04 11:19:27;;;;;;;4.10;3.00;;;;;;;15.51;61.53;93637.12;106663;1275;22544;-79
2023/11/04 11:21:55;;;;;;;4.40;3.20;;;;;;;15.48;62.62;93631.64;106647;1275;23697;-79
2023/11/04 11:24:24;;;;;;;7.00;3.00;;;;;;;15.48;63.46;93635.55;106683;1275;22529;-79
2023/11/04 11:27:00;;;;;;;5.30;3.20;;;;;;;15.48;63.62;93633.07;106647;1275;25413;-79
2023/11/04 11:29:29;;;;;;;4.00;2.60;;;;;;;15.48;64.01;93626.86;106638;1275;22524;-79
2023/11/04 11:32:05;;;;;;;4.10;2.50;;;;;;;15.45;63.69;93629.75;106730;1273;22641;-79
2023/11/04 11:34:34;;;;;;;6.40;3.00;;;;;;;15.31;63.76;93637.81;106604;1275;24267;-79
2023/11/04 11:37:04;;;;;;;2.50;1.30;;;;;;;15.19;63.53;93643.36;106710;1275;22546;-78